Time;durP1;ratioP1;P1;durP2;ratioP2;P2;SDS_P1;SDS_P2;PMS_P1;PMS_P2;Temp;Humidity;BMP_temperature;BMP_pressure;BME280_temperature;BME280_humidity;BME280_pressure;Samples;Min_cycle;Max_cycle;Signal;HPM_P1;HPM_P2
2022/03/01 00:01:52;;;;;;;9.90;8.60;;;;;;;1.17;81.97;101482.97;4927637;29;20219;-54
2022/03/01 00:04:18;;;;;;;10.83;9.50;;;;;;;1.09;81.79;101487.69;4923869;29;20197;-54
2022/03/01 00:06:44;;;;;;;11.93;9.77;;;;;;;1.03;82.12;101477.19;4926376;28;20218;-55
2022/03/01 00:09:09;;;;;;;11.10;9.20;;;;;;;0.94;82.47;101477.59;4945560;28;20199;-54
2022/03/01 00:11:35;;;;;;;11.57;9.60;;;;;;;0.86;83.75;101482.31;5007845;28;20219;-53
2022/03/01 00:14:01;;;;;;;10.43;9.40;;;;;;;0.81;84.46;101478.69;4990392;28;20218;-55
2022/03/01 00:16:27;;;;;;;11.47;10.27;;;;;;;0.77;85.27;101486.97;4927683;28;20236;-54
2022/03/01 00:18:53;;;;;;;10.20;9.20;;;;;;;0.72;84.75;101486.72;4933090;28;20615;-55
2022/03/01 00:21:18;;;;;;;10.87;9.73;;;;;;;0.73;82.99;101483.38;4929490;29;20215;-54
2022/03/01 00:23:44;;;;;;;11.90;9.67;;;;;;;0.74;82.20;101487.69;4925806;28;20650;-55
2022/03/01 00:26:09;;;;;;;11.83;9.50;;;;;;;0.71;82.32;101482.44;4927569;29;20271;-54
2022/03/01 00:28:34;;;;;;;11.33;10.13;;;;;;;0.66;82.75;101481.31;4928468;28;20208;-55
2022/03/01 00:31:00;;;;;;;10.50;9.03;;;;;;;0.61;83.36;101485.28;4988437;28;20197;-55
2022/03/01 00:33:25;;;;;;;11.23;9.67;;;;;;;0.56;83.65;101496.94;4924845;28;20183;-55
2022/03/01 00:35:51;;;;;;;12.77;10.07;;;;;;;0.53;85.17;101492.53;4932155;28;20242;-55
2022/03/01 00:38:16;;;;;;;11.90;10.20;;;;;;;0.45;85.29;101499.78;4995253;28;20217;-54
2022/03/01 00:40:41;;;;;;;11.50;9.87;;;;;;;0.38;85.52;101497.72;4928096;29;20224;-54
2022/03/01 00:43:07;;;;;;;12.80;10.20;;;;;;;0.32;85.58;101497.41;4928422;28;20193;-53
2022/03/01 00:45:32;;;;;;;11.03;9.57;;;;;;;0.32;85.16;101496.53;4927492;29;20198;-54
2022/03/01 00:47:57;;;;;;;11.93;10.20;;;;;;;0.36;84.80;101508.63;4926309;29;20239;-53
2022/03/01 00:50:23;;;;;;;11.33;9.80;;;;;;;0.33;84.99;101505.94;4928425;28;20650;-54
2022/03/01 00:52:49;;;;;;;11.20;9.40;;;;;;;0.25;85.49;101505.53;4927401;28;20198;-54
2022/03/01 00:55:14;;;;;;;11.27;9.60;;;;;;;0.12;86.09;101501.44;4988568;28;20289;-53
2022/03/01 00:57:39;;;;;;;10.90;9.57;;;;;;;-0.01;86.41;101498.25;4926190;28;20229;-53
2022/03/01 01:00:07;;;;;;;11.87;10.10;;;;;;;-0.13;87.07;101492.50;4926256;29;20194;-53
2022/03/01 01:02:32;;;;;;;11.93;10.17;;;;;;;-0.23;87.42;101501.28;5003081;28;20754;-51
2022/03/01 01:04:58;;;;;;;11.87;10.43;;;;;;;-0.32;87.81;101494.03;4928532;29;20187;-53
2022/03/01 01:07:25;;;;;;;11.97;10.60;;;;;;;-0.41;88.25;101500.28;4928160;28;20235;-55
2022/03/01 01:09:51;;;;;;;12.27;10.97;;;;;;;-0.51;88.61;101507.41;4994349;28;20220;-54
2022/03/01 01:12:17;;;;;;;12.80;10.60;;;;;;;-0.60;89.09;101511.09;4925248;29;20245;-50
2022/03/01 01:14:43;;;;;;;12.83;10.20;;;;;;;-0.69;89.29;101499.63;4926454;28;20274;-52
2022/03/01 01:17:08;;;;;;;11.50;10.13;;;;;;;-0.78;89.85;101501.63;4924584;29;20217;-55
2022/03/01 01:19:34;;;;;;;11.77;9.90;;;;;;;-0.83;89.95;101505.59;4947831;28;20642;-50
2022/03/01 01:24:44;;;;;;;13.27;11.00;;;;;;;-0.96;90.73;101506.56;4929207;28;20822;-52
2022/03/01 01:27:10;;;;;;;12.23;10.53;;;;;;;-1.02;90.90;101514.72;4928558;28;20207;-53
2022/03/01 01:29:35;;;;;;;12.07;10.07;;;;;;;-1.07;91.35;101508.47;4934168;28;20186;-54
2022/03/01 01:32:01;;;;;;;12.80;10.93;;;;;;;-1.13;91.57;101510.63;4935204;28;20641;-55
2022/03/01 01:34:26;;;;;;;12.47;9.63;;;;;;;-1.18;91.72;101507.84;4928956;29;20283;-51
2022/03/01 01:36:51;;;;;;;11.93;10.10;;;;;;;-1.20;91.68;101503.47;4989076;28;20212;-56
2022/03/01 01:39:17;;;;;;;12.90;10.70;;;;;;;-1.21;92.09;101507.66;4925906;28;20226;-55
2022/03/01 01:41:42;;;;;;;11.13;9.60;;;;;;;-1.23;92.07;101491.47;4927814;29;20244;-54
2022/03/01 01:44:07;;;;;;;11.40;10.20;;;;;;;-1.22;92.06;101503.38;4930774;28;20211;-54
2022/03/01 01:46:34;;;;;;;11.67;9.93;;;;;;;-1.22;91.96;101503.38;5006970;28;20709;-54
2022/03/01 01:48:59;;;;;;;19.73;10.60;;;;;;;-1.24;91.96;101508.34;4925483;28;20196;-53
2022/03/01 01:51:25;;;;;;;11.07;9.50;;;;;;;-1.27;92.11;101498.00;4927847;28;20201;-54
2022/03/01 01:53:52;;;;;;;13.13;10.40;;;;;;;-1.27;92.40;101503.09;4927681;28;20240;-53
2022/03/01 01:56:17;;;;;;;12.67;9.93;;;;;;;-1.23;92.47;101501.63;4994347;28;20622;-54
2022/03/01 01:58:43;;;;;;;14.23;9.53;;;;;;;-1.17;91.81;101513.81;4927700;28;20404;-54
2022/03/01 02:01:09;;;;;;;11.07;9.87;;;;;;;-1.15;91.39;101510.56;4923383;28;20216;-55
2022/03/01 02:03:35;;;;;;;11.77;9.60;;;;;;;-1.07;90.50;101511.00;4931956;28;20250;-55
2022/03/01 02:06:01;;;;;;;11.10;9.07;;;;;;;-1.05;89.99;101519.59;4926882;28;20192;-54
2022/03/01 02:08:33;;;;;;;11.03;9.00;;;;;;;-1.08;90.21;101517.78;4925381;28;20204;-54
2022/03/01 02:11:02;;;;;;;11.10;9.77;;;;;;;-1.15;90.81;101522.41;4926388;29;20651;-53
2022/03/01 02:13:28;;;;;;;11.53;9.77;;;;;;;-1.22;91.20;101526.25;4932426;28;20228;-55
2022/03/01 02:15:55;;;;;;;10.13;9.03;;;;;;;-1.30;91.49;101522.34;4954684;28;20220;-54
2022/03/01 02:18:24;;;;;;;10.47;9.33;;;;;;;-1.36;91.55;101522.88;4922423;28;20219;-55
2022/03/01 02:20:49;;;;;;;9.60;8.60;;;;;;;-1.42;91.77;101525.03;4928121;28;20238;-54
2022/03/01 02:23:15;;;;;;;11.77;9.33;;;;;;;-1.47;92.16;101528.97;4923697;29;21971;-54
2022/03/01 02:25:40;;;;;;;11.33;9.90;;;;;;;-1.54;92.44;101517.59;4921211;29;20725;-54
2022/03/01 02:28:06;;;;;;;11.40;9.83;;;;;;;-1.56;92.77;101519.16;4924659;29;20214;-55
2022/03/01 02:30:32;;;;;;;12.90;9.83;;;;;;;-1.58;92.62;101515.63;4990098;28;20303;-55
2022/03/01 02:32:58;;;;;;;12.50;9.73;;;;;;;-1.57;92.41;101515.72;4925599;29;20227;-54
2022/03/01 02:35:24;;;;;;;11.73;9.93;;;;;;;-1.55;92.22;101510.75;4925292;28;20213;-54
2022/03/01 02:37:50;;;;;;;12.30;10.23;;;;;;;-1.54;92.54;101507.44;4923685;29;20833;-53
2022/03/01 02:40:16;;;;;;;13.37;10.50;;;;;;;-1.53;92.83;101511.72;4927645;28;20193;-55
2022/03/01 02:42:43;;;;;;;11.67;9.90;;;;;;;-1.55;93.43;101511.63;4929226;29;20194;-54
2022/03/01 02:45:11;;;;;;;11.40;9.67;;;;;;;-1.57;93.49;101510.63;4926817;28;20196;-53
2022/03/01 02:47:37;;;;;;;12.10;10.40;;;;;;;-1.59;94.90;101509.66;4927205;28;20211;-53
2022/03/01 02:50:05;;;;;;;13.00;10.00;;;;;;;-1.60;94.98;101510.47;4958083;28;20202;-54
2022/03/01 02:52:30;;;;;;;11.97;10.47;;;;;;;-1.64;95.40;101500.91;5012151;28;20187;-54
2022/03/01 02:54:56;;;;;;;11.53;10.33;;;;;;;-1.68;95.38;101504.03;4932831;29;20200;-54
2022/03/01 02:57:21;;;;;;;10.83;9.57;;;;;;;-1.75;95.65;101504.47;4934190;28;20369;-53
2022/03/01 02:59:47;;;;;;;10.87;9.57;;;;;;;-1.82;95.70;101505.75;4931763;29;20191;-53
2022/03/01 03:02:12;;;;;;;10.70;8.87;;;;;;;-1.89;95.73;101493.47;4933790;28;20216;-56
2022/03/01 03:04:39;;;;;;;12.30;10.00;;;;;;;-1.92;95.83;101493.28;4931705;28;20803;-54
2022/03/01 03:07:05;;;;;;;12.53;9.90;;;;;;;-1.94;95.80;101497.38;4930581;29;20215;-55
2022/03/01 03:09:30;;;;;;;10.73;9.43;;;;;;;-1.92;95.21;101493.28;4932189;28;20192;-54
2022/03/01 03:11:56;;;;;;;12.40;10.27;;;;;;;-1.88;94.74;101492.69;4932841;29;20250;-55
2022/03/01 03:14:21;;;;;;;13.37;10.40;;;;;;;-1.86;94.73;101496.19;4995532;28;20213;-54
2022/03/01 03:16:46;;;;;;;11.83;10.23;;;;;;;-1.90;95.04;101494.25;4934584;28;20199;-53
2022/03/01 03:19:15;;;;;;;12.27;10.03;;;;;;;-1.93;95.11;101494.94;4951655;28;20610;-55
2022/03/01 03:21:41;;;;;;;13.67;10.53;;;;;;;-1.98;94.76;101493.78;4932333;29;20226;-54
2022/03/01 03:24:07;;;;;;;11.47;9.77;;;;;;;-2.03;95.04;101501.13;4930010;29;20573;-53
2022/03/01 03:26:32;;;;;;;11.50;9.83;;;;;;;-2.11;95.41;101494.66;4934331;29;20286;-53
2022/03/01 03:28:57;;;;;;;11.90;10.30;;;;;;;-2.18;95.61;101493.41;4934796;29;20255;-53
2022/03/01 03:31:23;;;;;;;10.23;9.13;;;;;;;-2.26;95.81;101494.59;4935578;28;20220;-54
2022/03/01 03:33:48;;;;;;;12.63;9.67;;;;;;;-2.32;96.38;101487.50;4931724;28;20638;-54
2022/03/01 03:36:13;;;;;;;10.53;9.33;;;;;;;-2.32;96.44;101487.50;4931165;29;21688;-54
2022/03/01 03:38:39;;;;;;;11.67;9.47;;;;;;;-2.31;96.20;101488.34;4933141;29;20181;-56
2022/03/01 03:41:04;;;;;;;13.03;10.40;;;;;;;-2.27;96.10;101484.38;4929713;28;20681;-54
2022/03/01 03:43:30;;;;;;;13.90;10.87;;;;;;;-2.27;96.03;101490.31;4932813;29;20194;-54
2022/03/01 03:45:56;;;;;;;11.80;10.53;;;;;;;-2.28;96.07;101482.63;4930205;28;20322;-54
2022/03/01 03:48:21;;;;;;;12.93;9.83;;;;;;;-2.28;96.39;101485.16;4929249;28;20297;-54
2022/03/01 03:50:47;;;;;;;11.80;9.90;;;;;;;-2.32;96.75;101487.50;4932313;29;20800;-54
2022/03/01 03:53:13;;;;;;;11.07;9.27;;;;;;;-2.39;96.85;101480.28;4929371;29;20696;-54
2022/03/01 03:55:38;;;;;;;11.67;9.50;;;;;;;-2.47;96.72;101482.31;4930785;29;20192;-55
2022/03/01 03:58:04;;;;;;;11.80;9.83;;;;;;;-2.57;97.06;101481.66;4931444;28;20297;-53
2022/03/01 04:00:29;;;;;;;11.33;8.90;;;;;;;-2.65;96.87;101478.66;4991639;28;20203;-56
2022/03/01 04:02:55;;;;;;;11.87;9.10;;;;;;;-2.70;96.77;101480.00;4989958;28;20204;-55
2022/03/01 04:05:20;;;;;;;11.37;9.93;;;;;;;-2.73;96.82;101474.72;4927756;28;20191;-55
2022/03/01 04:07:46;;;;;;;13.93;11.00;;;;;;;-2.72;96.61;101474.81;4927230;29;20561;-54
2022/03/01 04:10:13;;;;;;;12.07;10.57;;;;;;;-2.66;95.98;101474.34;4926727;28;20645;-55
2022/03/01 04:12:39;;;;;;;12.87;10.63;;;;;;;-2.62;95.77;101473.75;4928226;29;20674;-55
2022/03/01 04:15:06;;;;;;;12.63;10.27;;;;;;;-2.66;95.78;101474.34;4926610;29;20220;-54
2022/03/01 04:17:32;;;;;;;10.90;9.73;;;;;;;-2.72;96.11;101482.41;4921824;28;20240;-54
2022/03/01 04:19:57;;;;;;;12.07;9.47;;;;;;;-2.80;96.33;101479.38;4927474;29;20966;-54
2022/03/01 04:22:23;;;;;;;13.00;9.87;;;;;;;-2.87;96.87;101474.72;4925481;28;20578;-53
2022/03/01 04:24:48;;;;;;;12.10;9.63;;;;;;;-2.93;96.82;101474.31;4921432;28;20187;-52
2022/03/01 04:27:17;;;;;;;12.97;9.97;;;;;;;-2.97;97.17;101463.09;4926524;29;20216;-53
2022/03/01 04:29:43;;;;;;;13.53;10.50;;;;;;;-3.00;97.28;101465.44;4928063;29;20211;-54
2022/03/01 04:32:08;;;;;;;14.03;10.47;;;;;;;-2.97;97.39;101472.38;4928518;28;20223;-56
2022/03/01 04:34:36;;;;;;;11.93;9.70;;;;;;;-2.98;97.88;101466.41;4926187;29;20274;-54
2022/03/01 04:37:02;;;;;;;11.37;10.17;;;;;;;-2.99;97.90;101477.31;4924868;28;20603;-55
2022/03/01 04:39:29;;;;;;;12.57;9.50;;;;;;;-3.03;98.28;101477.03;4923651;29;20200;-54
2022/03/01 04:41:54;;;;;;;10.77;8.57;;;;;;;-3.10;98.18;101473.22;4925190;28;20243;-54
2022/03/01 04:44:20;;;;;;;9.87;8.80;;;;;;;-3.15;98.41;101466.97;4924679;28;20909;-53
2022/03/01 04:46:45;;;;;;;9.93;8.93;;;;;;;-3.21;98.45;101462.38;4922721;29;20576;-57
2022/03/01 04:49:10;;;;;;;11.13;9.27;;;;;;;-3.25;98.81;101462.94;4920907;29;20196;-54
2022/03/01 04:51:36;;;;;;;17.07;9.77;;;;;;;-3.30;99.00;101455.03;4926314;28;20684;-55
2022/03/01 04:54:01;;;;;;;14.73;9.37;;;;;;;-3.31;98.89;101463.41;4926065;28;20279;-55
2022/03/01 04:56:27;;;;;;;14.97;10.27;;;;;;;-3.33;98.84;101465.00;4922795;28;20207;-55
2022/03/01 04:58:52;;;;;;;13.80;9.37;;;;;;;-3.35;98.99;101463.13;4927728;29;20207;-53
2022/03/01 05:01:18;;;;;;;14.73;9.53;;;;;;;-3.37;99.25;101452.91;4925649;28;20298;-54
2022/03/01 05:03:43;;;;;;;12.97;9.17;;;;;;;-3.37;99.30;101463.03;4926087;28;20195;-54
2022/03/01 05:06:09;;;;;;;12.10;9.10;;;;;;;-3.38;99.50;101464.66;4926159;28;20188;-53
2022/03/01 05:08:34;;;;;;;10.83;9.57;;;;;;;-3.40;99.33;101455.22;4923282;29;20191;-55
2022/03/01 05:11:01;;;;;;;11.00;9.10;;;;;;;-3.40;99.66;101455.22;4925964;28;20187;-54
2022/03/01 05:13:27;;;;;;;11.77;9.80;;;;;;;-3.42;99.88;101446.66;4925186;28;20192;-54
2022/03/01 05:15:55;;;;;;;11.40;9.23;;;;;;;-3.44;100.00;101450.72;4927439;28;20681;-52
2022/03/01 05:18:22;;;;;;;12.77;9.23;;;;;;;-3.43;100.00;101447.41;4926504;28;20219;-53
2022/03/01 05:20:51;;;;;;;15.00;10.83;;;;;;;-3.42;100.00;101447.53;4931314;28;20206;-54
2022/03/01 05:23:17;;;;;;;12.43;10.83;;;;;;;-3.38;100.00;101452.00;4925155;29;20200;-54
2022/03/01 05:25:43;;;;;;;16.07;10.70;;;;;;;-3.31;100.00;101447.38;4925879;28;20184;-55
2022/03/01 05:28:09;;;;;;;12.13;10.10;;;;;;;-3.24;100.00;101449.50;4929566;29;20242;-55
2022/03/01 05:30:35;;;;;;;10.37;9.23;;;;;;;-3.25;99.76;101451.19;4930928;28;20191;-54
2022/03/01 05:33:00;;;;;;;10.03;9.00;;;;;;;-3.26;99.40;101454.47;4930312;29;20249;-54
2022/03/01 05:35:28;;;;;;;12.57;9.73;;;;;;;-3.26;99.37;101451.94;4929314;29;20191;-54
2022/03/01 05:37:54;;;;;;;11.10;8.83;;;;;;;-3.25;99.26;101446.13;4931779;28;20669;-54
2022/03/01 05:40:25;;;;;;;10.83;9.13;;;;;;;-3.24;98.96;101444.44;4926572;29;20200;-55
2022/03/01 05:42:51;;;;;;;13.70;10.17;;;;;;;-3.26;99.04;101449.41;4929259;29;20195;-54
2022/03/01 05:45:20;;;;;;;11.77;9.73;;;;;;;-3.27;99.66;101451.88;4926835;29;20184;-55
2022/03/01 05:47:46;;;;;;;15.00;11.07;;;;;;;-3.29;99.72;101450.88;4928544;28;20212;-55
2022/03/01 05:50:14;;;;;;;12.07;10.27;;;;;;;-3.35;100.00;101453.00;4927738;28;20206;-53
2022/03/01 05:52:40;;;;;;;13.53;9.80;;;;;;;-3.43;100.00;101452.47;4929621;29;20191;-54
2022/03/01 05:55:07;;;;;;;12.33;10.10;;;;;;;-3.48;100.00;101456.38;4928266;28;20253;-54
2022/03/01 05:57:33;;;;;;;13.47;10.30;;;;;;;-3.51;100.00;101462.09;5007724;28;20211;-54
2022/03/01 05:59:59;;;;;;;13.63;10.70;;;;;;;-3.55;100.00;101463.56;4932584;29;20195;-55
2022/03/01 06:02:25;;;;;;;13.87;10.47;;;;;;;-3.61;100.00;101468.19;4928440;28;20285;-54
2022/03/01 06:04:51;;;;;;;14.60;11.13;;;;;;;-3.65;100.00;101468.78;4931792;29;20203;-53
2022/03/01 06:07:16;;;;;;;14.03;10.63;;;;;;;-3.74;100.00;101469.03;4929934;28;20234;-54
2022/03/01 06:09:42;;;;;;;12.93;10.20;;;;;;;-3.80;100.00;101472.78;4929868;29;20281;-54
2022/03/01 06:12:07;;;;;;;14.10;11.50;;;;;;;-3.85;100.00;101473.34;4930229;29;20187;-53
2022/03/01 06:14:33;;;;;;;12.07;10.43;;;;;;;-3.88;100.00;101474.78;4997915;28;20195;-54
2022/03/01 06:16:58;;;;;;;13.90;11.30;;;;;;;-3.87;100.00;101474.03;4929063;28;20218;-54
2022/03/01 06:19:24;;;;;;;13.23;10.63;;;;;;;-3.86;100.00;101485.91;4931178;28;20188;-54
2022/03/01 06:21:51;;;;;;;14.77;11.47;;;;;;;-3.84;100.00;101479.25;4928518;29;20215;-54
2022/03/01 06:24:16;;;;;;;16.80;12.17;;;;;;;-3.81;100.00;101489.59;4994755;28;20265;-52
2022/03/01 06:26:42;;;;;;;14.90;12.40;;;;;;;-3.83;100.00;101486.09;5038280;22;20244;-55
2022/03/01 06:29:07;;;;;;;13.27;11.40;;;;;;;-3.86;100.00;101491.81;4972358;28;20189;-54
2022/03/01 06:31:32;;;;;;;12.87;10.67;;;;;;;-3.84;100.00;101494.44;4974909;28;20216;-55
2022/03/01 06:33:58;;;;;;;13.33;10.37;;;;;;;-3.85;100.00;101495.22;4975700;28;20721;-54
2022/03/01 06:36:25;;;;;;;13.20;10.20;;;;;;;-3.80;100.00;101504.00;4969017;28;20214;-55
2022/03/01 06:38:51;;;;;;;12.87;10.40;;;;;;;-3.70;100.00;101500.47;4979340;28;20258;-55
2022/03/01 06:41:16;;;;;;;12.63;10.30;;;;;;;-3.60;100.00;101505.38;4967120;28;20209;-53
2022/03/01 06:43:41;;;;;;;12.37;10.13;;;;;;;-3.48;100.00;101509.53;4975067;28;20668;-53
2022/03/01 06:46:08;;;;;;;13.57;10.63;;;;;;;-3.34;100.00;101507.91;4969750;28;20185;-53
2022/03/01 06:48:33;;;;;;;12.97;11.43;;;;;;;-3.11;100.00;101507.81;4964001;28;20224;-54
2022/03/01 06:50:59;;;;;;;16.50;10.93;;;;;;;-2.81;99.57;101510.59;4991356;28;20785;-53
2022/03/01 06:53:24;;;;;;;14.37;11.57;;;;;;;-2.53;98.47;101514.00;4965391;28;20228;-55
2022/03/01 06:55:50;;;;;;;15.40;10.57;;;;;;;-2.35;97.87;101517.72;4994264;28;20189;-54
2022/03/01 06:58:15;;;;;;;11.63;9.77;;;;;;;-2.24;97.37;101505.72;4991472;28;20214;-54
2022/03/01 07:00:41;;;;;;;11.33;9.57;;;;;;;-2.16;97.17;101514.69;4966296;28;20209;-54
2022/03/01 07:03:07;;;;;;;12.43;9.90;;;;;;;-2.10;96.73;101520.94;4960276;28;20182;-54
2022/03/01 07:05:32;;;;;;;11.07;9.83;;;;;;;-2.06;96.53;101506.00;4965587;28;20711;-54
2022/03/01 07:07:58;;;;;;;13.87;9.77;;;;;;;-2.05;96.48;101517.91;4964417;28;20198;-53
2022/03/01 07:10:24;;;;;;;13.53;9.57;;;;;;;-2.06;96.38;101526.28;5032426;28;20640;-54
2022/03/01 07:12:50;;;;;;;11.33;9.23;;;;;;;-1.96;96.26;101521.78;4965677;28;20193;-52
2022/03/01 07:15:15;;;;;;;12.57;10.23;;;;;;;-1.85;95.84;101521.66;4965538;28;20214;-54
2022/03/01 07:17:41;;;;;;;13.83;10.57;;;;;;;-1.77;95.51;101523.81;4962800;28;20291;-53
2022/03/01 07:20:07;;;;;;;12.73;10.53;;;;;;;-1.70;95.46;101528.44;4978649;28;20179;-54
2022/03/01 07:22:33;;;;;;;12.07;9.43;;;;;;;-1.63;95.40;101524.63;4967310;28;20207;-53
2022/03/01 07:24:58;;;;;;;12.03;9.80;;;;;;;-1.54;95.30;101522.66;4963705;28;20247;-53
2022/03/01 07:27:24;;;;;;;11.60;10.13;;;;;;;-1.47;95.11;101513.75;4965504;28;20303;-53
2022/03/01 07:29:49;;;;;;;12.77;10.00;;;;;;;-1.40;94.85;101521.81;4967499;28;20193;-54
2022/03/01 07:32:14;;;;;;;11.90;10.13;;;;;;;-1.31;94.37;101523.16;4966786;28;20180;-55
2022/03/01 07:34:42;;;;;;;13.97;9.77;;;;;;;-1.25;93.46;101515.91;4969108;28;20338;-53
2022/03/01 07:37:08;;;;;;;12.43;9.53;;;;;;;-1.19;93.07;101513.69;4969177;28;20210;-54
2022/03/01 07:39:33;;;;;;;14.83;9.80;;;;;;;-1.11;92.87;101517.59;4970845;28;20190;-54
2022/03/01 07:41:59;;;;;;;11.53;10.00;;;;;;;-1.05;92.36;101517.06;5015420;28;20210;-54
2022/03/01 07:44:24;;;;;;;11.60;8.90;;;;;;;-0.98;92.15;101508.13;4970362;28;20205;-54
2022/03/01 07:46:49;;;;;;;12.20;10.37;;;;;;;-0.94;91.25;101513.47;5032979;28;20209;-54
2022/03/01 07:49:15;;;;;;;11.97;10.13;;;;;;;-0.90;90.73;101524.69;5033902;28;20231;-55
2022/03/01 07:51:41;;;;;;;12.70;10.50;;;;;;;-0.85;90.97;101519.88;4967824;28;20676;-54
2022/03/01 07:54:06;;;;;;;13.87;10.90;;;;;;;-0.73;90.95;101519.69;4963693;28;20196;-54
2022/03/01 07:56:31;;;;;;;13.90;11.00;;;;;;;-0.61;91.40;101517.88;4966898;28;20214;-55
2022/03/01 07:58:57;;;;;;;13.17;10.67;;;;;;;-0.43;90.86;101517.13;4967639;28;20470;-54
2022/03/01 08:01:22;;;;;;;12.23;10.10;;;;;;;-0.33;90.99;101519.41;4968031;28;20207;-55
2022/03/01 08:03:49;;;;;;;12.80;10.63;;;;;;;-0.21;91.52;101514.09;4968202;28;20200;-54
2022/03/01 08:06:16;;;;;;;13.53;10.33;;;;;;;-0.07;92.10;101518.25;4967867;28;20208;-55
2022/03/01 08:08:41;;;;;;;16.27;10.00;;;;;;;0.06;92.20;101513.84;4968999;28;20291;-55
2022/03/01 08:11:07;;;;;;;12.90;10.20;;;;;;;0.20;91.15;101515.47;4969192;28;20713;-54
2022/03/01 08:13:35;;;;;;;18.30;10.80;;;;;;;0.39;87.38;101518.97;4969369;28;20190;-54
2022/03/01 08:16:01;;;;;;;11.57;9.93;;;;;;;0.54;85.32;101514.66;5028036;28;20193;-53
2022/03/01 08:18:27;;;;;;;14.83;9.87;;;;;;;0.71;83.39;101518.09;4967964;28;20190;-54
2022/03/01 08:20:52;;;;;;;12.67;9.87;;;;;;;0.80;81.84;101520.25;4969726;28;20582;-53
2022/03/01 08:23:17;;;;;;;11.63;10.43;;;;;;;0.91;81.84;101518.22;4968805;28;20614;-54
2022/03/01 08:25:43;;;;;;;13.03;10.47;;;;;;;1.01;81.83;101522.09;4969104;28;20232;-53
2022/03/01 08:28:09;;;;;;;12.97;10.10;;;;;;;1.11;82.02;101513.25;4967575;28;20229;-53
2022/03/01 08:30:35;;;;;;;14.00;9.77;;;;;;;1.24;81.58;101507.94;4966411;28;20279;-53
2022/03/01 08:33:02;;;;;;;13.27;10.20;;;;;;;1.39;81.90;101514.59;4966545;28;20244;-53
2022/03/01 08:35:28;;;;;;;12.07;10.43;;;;;;;1.49;79.85;101519.34;4966146;28;20265;-55
2022/03/01 08:37:54;;;;;;;11.87;10.07;;;;;;;1.61;79.95;101503.72;4962924;28;20710;-55
2022/03/01 08:40:21;;;;;;;13.60;10.53;;;;;;;1.75;79.62;101504.41;4962917;28;20202;-55
2022/03/01 08:42:47;;;;;;;13.60;10.70;;;;;;;1.83;78.73;101503.06;4967749;28;20190;-54
2022/03/01 08:45:12;;;;;;;14.00;10.73;;;;;;;1.93;78.19;101514.56;4971010;28;20194;-54
2022/03/01 08:47:39;;;;;;;13.53;9.67;;;;;;;2.00;77.90;101503.84;4968268;28;20294;-55
2022/03/01 08:50:05;;;;;;;13.80;10.40;;;;;;;2.10;78.07;101511.13;4969275;28;20205;-55
2022/03/01 08:52:31;;;;;;;11.77;10.03;;;;;;;2.20;77.67;101511.53;4966893;28;20193;-54
2022/03/01 08:54:56;;;;;;;13.07;10.70;;;;;;;2.32;77.98;101512.09;5033898;28;20243;-55
2022/03/01 08:57:21;;;;;;;11.33;9.37;;;;;;;2.42;77.60;101508.28;4968033;28;20224;-54
2022/03/01 08:59:47;;;;;;;12.40;10.07;;;;;;;2.46;76.49;101507.59;4968205;28;20225;-54
2022/03/01 09:02:13;;;;;;;11.93;9.40;;;;;;;2.56;77.06;101514.88;5030174;28;20209;-54
2022/03/01 09:04:39;;;;;;;10.17;8.87;;;;;;;2.69;77.16;101508.59;4969273;28;20201;-55
2022/03/01 09:07:04;;;;;;;14.43;9.97;;;;;;;2.80;77.28;101503.06;4983893;28;20210;-54
2022/03/01 09:09:31;;;;;;;10.17;9.03;;;;;;;2.87;75.93;101505.06;4967814;28;20190;-55
2022/03/01 09:11:58;;;;;;;13.97;10.47;;;;;;;2.93;75.09;101510.44;4968164;28;20289;-55
2022/03/01 09:14:24;;;;;;;9.93;8.50;;;;;;;3.03;74.90;101507.47;4968233;28;20245;-55
2022/03/01 09:16:49;;;;;;;15.07;10.50;;;;;;;3.14;73.97;101507.00;4967295;28;20265;-54
2022/03/01 09:19:15;;;;;;;15.60;9.63;;;;;;;3.23;73.39;101498.84;4968270;28;20214;-53
2022/03/01 09:21:41;;;;;;;9.80;8.80;;;;;;;3.42;72.91;101506.47;4967454;28;20221;-53
2022/03/01 09:24:07;;;;;;;13.33;9.47;;;;;;;3.56;72.24;101504.44;4968548;28;20190;-53
2022/03/01 09:26:33;;;;;;;16.90;9.77;;;;;;;3.63;70.93;101503.03;4965724;28;20221;-56
2022/03/01 09:28:59;;;;;;;12.07;9.77;;;;;;;3.71;71.07;101493.03;4966540;28;20203;-55
2022/03/01 09:31:24;;;;;;;11.37;9.70;;;;;;;3.85;70.75;101502.16;4966361;28;20195;-54
2022/03/01 09:33:50;;;;;;;11.60;9.37;;;;;;;3.94;69.29;101502.50;4966503;28;20194;-54
2022/03/01 09:36:15;;;;;;;12.03;9.77;;;;;;;4.08;68.62;101504.69;4971471;28;20193;-54
2022/03/01 09:38:41;;;;;;;10.60;9.50;;;;;;;4.14;67.87;101502.38;4966479;28;20202;-54
2022/03/01 09:41:08;;;;;;;12.73;9.70;;;;;;;4.28;68.09;101500.31;4967143;28;20564;-54
2022/03/01 09:43:37;;;;;;;14.23;9.20;;;;;;;4.52;67.38;101502.88;4967203;28;20213;-55
2022/03/01 09:46:06;;;;;;;11.70;9.83;;;;;;;4.54;66.86;101506.38;4967936;28;20535;-54
2022/03/01 09:48:32;;;;;;;13.00;10.17;;;;;;;4.70;67.10;101501.78;4967830;28;20194;-54
2022/03/01 09:51:00;;;;;;;11.50;9.30;;;;;;;4.84;66.70;101498.00;4965123;28;20270;-53
2022/03/01 09:53:26;;;;;;;10.50;9.47;;;;;;;5.03;65.08;101504.63;4967774;28;20202;-54
2022/03/01 09:55:52;;;;;;;13.03;10.10;;;;;;;5.13;64.84;101494.69;4968415;28;20213;-53
2022/03/01 09:58:18;;;;;;;13.13;10.13;;;;;;;5.28;63.81;101495.19;4966686;28;20213;-54
2022/03/01 10:00:45;;;;;;;11.07;9.27;;;;;;;5.30;63.59;101498.63;4966645;28;20260;-54
2022/03/01 10:03:15;;;;;;;12.43;10.03;;;;;;;5.31;63.07;101492.69;5032051;28;20782;-54
2022/03/01 10:05:41;;;;;;;14.93;10.43;;;;;;;5.29;63.39;101493.47;4963083;28;20197;-54
2022/03/01 10:08:11;;;;;;;12.53;9.77;;;;;;;5.22;62.91;101483.84;4964280;28;20217;-53
2022/03/01 10:10:40;;;;;;;10.63;9.30;;;;;;;5.39;63.07;101482.66;4970813;28;20682;-53
2022/03/01 10:13:06;;;;;;;11.90;9.53;;;;;;;5.42;62.04;101484.47;4966692;28;20457;-54
2022/03/01 10:15:32;;;;;;;10.67;9.60;;;;;;;5.62;62.86;101479.94;4967390;28;20211;-53
2022/03/01 10:18:07;;;;;;;10.60;9.50;;;;;;;5.65;61.33;101490.31;4966120;28;20664;-54
2022/03/01 10:20:33;;;;;;;10.70;9.53;;;;;;;5.72;61.23;101487.09;4965803;28;20186;-54
2022/03/01 10:22:58;;;;;;;10.67;9.57;;;;;;;5.78;60.89;101486.41;4968169;28;20659;-54
2022/03/01 10:25:26;;;;;;;12.80;9.67;;;;;;;5.93;60.06;101478.31;4965573;28;20242;-55
2022/03/01 10:27:53;;;;;;;10.70;9.07;;;;;;;6.14;59.74;101484.91;4966402;28;20588;-54
2022/03/01 10:30:27;;;;;;;9.97;8.97;;;;;;;6.22;58.96;101480.88;4980392;28;20538;-55
2022/03/01 10:33:13;;;;;;;12.90;9.17;;;;;;;6.22;59.66;101476.59;5026314;28;20772;-55
2022/03/01 10:35:41;;;;;;;10.27;8.97;;;;;;;6.34;58.54;101468.34;5022949;28;20336;-55
2022/03/01 10:38:08;;;;;;;10.93;9.23;;;;;;;6.62;58.47;101463.94;4962499;28;20214;-55
2022/03/01 10:40:37;;;;;;;13.80;9.50;;;;;;;6.71;58.54;101455.59;4961244;28;20195;-55
2022/03/01 10:43:11;;;;;;;10.80;9.43;;;;;;;6.89;58.31;101457.75;4961061;28;20202;-55
2022/03/01 10:45:48;;;;;;;11.30;8.57;;;;;;;6.95;58.07;101455.34;5028130;28;20659;-54
2022/03/01 10:48:32;;;;;;;10.23;8.70;;;;;;;6.99;57.59;101457.19;4962799;28;21129;-55
2022/03/01 10:51:08;;;;;;;29.53;9.60;;;;;;;7.17;57.76;101443.88;4961924;28;20222;-53
2022/03/01 10:53:36;;;;;;;8.90;7.87;;;;;;;7.19;55.61;101448.19;4967370;28;20646;-54
2022/03/01 10:56:10;;;;;;;10.63;8.17;;;;;;;7.00;55.92;101447.72;4961323;28;20249;-54
2022/03/01 10:58:36;;;;;;;9.20;8.10;;;;;;;7.19;56.01;101448.19;5013278;28;20240;-54
2022/03/01 11:01:04;;;;;;;10.83;8.17;;;;;;;7.28;53.96;101443.25;4967954;28;20303;-54
2022/03/01 11:03:30;;;;;;;9.77;8.43;;;;;;;7.20;53.36;101440.47;4962084;28;20203;-54
2022/03/01 11:05:56;;;;;;;11.10;8.60;;;;;;;7.09;54.46;101447.09;4965654;28;20184;-53
2022/03/01 11:08:25;;;;;;;11.53;8.00;;;;;;;7.10;55.71;101456.56;4967212;28;20220;-54
2022/03/01 11:10:52;;;;;;;8.90;7.97;;;;;;;7.06;54.45;101440.19;4970010;28;20280;-54
2022/03/01 11:13:25;;;;;;;9.43;8.13;;;;;;;6.96;54.49;101451.94;5001553;28;20576;-55
2022/03/01 11:16:21;;;;;;;9.00;7.73;;;;;;;7.08;54.42;101445.34;4969696;28;20191;-54